createdAt,value
2018-02-06T00:01:16.210Z,11.17
2018-02-06T00:03:45.221Z,10.60
2018-02-06T00:06:12.688Z,11.40
2018-02-06T00:08:40.965Z,10.90
2018-02-06T00:11:09.204Z,11.20
2018-02-06T00:13:36.715Z,10.63
2018-02-06T00:16:04.974Z,10.27
2018-02-06T00:18:33.275Z,11.43
2018-02-06T00:21:00.767Z,11.23
2018-02-06T00:23:28.284Z,10.07
2018-02-06T00:25:56.526Z,11.60
2018-02-06T00:28:24.213Z,10.73
2018-02-06T00:30:52.459Z,11.07
2018-02-06T00:33:19.972Z,11.37
2018-02-06T00:35:47.464Z,11.73
2018-02-06T00:38:14.961Z,11.77
2018-02-06T00:40:43.236Z,10.23
2018-02-06T00:43:11.481Z,11.40
2018-02-06T00:45:38.973Z,10.47
2018-02-06T00:48:07.224Z,11.13
2018-02-06T00:50:34.750Z,10.93
2018-02-06T00:53:02.239Z,12.37
2018-02-06T00:55:29.787Z,11.00
2018-02-06T00:57:57.276Z,10.90
2018-02-06T01:00:25.561Z,12.03
2018-02-06T01:02:53.825Z,10.20
2018-02-06T01:05:21.329Z,10.47
2018-02-06T01:07:48.811Z,11.57
2018-02-06T01:10:16.345Z,11.57
2018-02-06T01:12:43.837Z,11.67
2018-02-06T01:15:11.341Z,11.83
2018-02-06T01:17:38.827Z,11.97
2018-02-06T01:20:06.332Z,13.63
2018-02-06T01:22:34.606Z,11.50
2018-02-06T01:25:02.868Z,13.30
2018-02-06T01:27:30.347Z,12.50
2018-02-06T01:29:58.626Z,12.20
2018-02-06T01:32:26.876Z,13.67
2018-02-06T01:34:54.362Z,11.63
2018-02-06T01:37:22.665Z,13.67
2018-02-06T01:39:50.170Z,13.57
2018-02-06T01:42:17.652Z,12.87
2018-02-06T01:44:45.930Z,13.93
2018-02-06T01:47:14.189Z,13.03
2018-02-06T01:50:02.391Z,12.83
2018-02-06T01:52:30.862Z,12.33
2018-02-06T01:54:58.415Z,12.70
2018-02-06T01:57:25.882Z,12.40
2018-02-06T01:59:53.388Z,12.60
2018-02-06T02:02:20.890Z,13.33
2018-02-06T02:04:48.389Z,12.60
2018-02-06T02:07:15.870Z,12.33
2018-02-06T02:09:44.132Z,13.97
2018-02-06T02:12:11.638Z,12.33
2018-02-06T02:14:39.679Z,13.20
2018-02-06T02:17:07.926Z,13.00
2018-02-06T02:19:35.936Z,12.53
2018-02-06T02:22:04.197Z,12.47
2018-02-06T02:24:32.438Z,12.53
2018-02-06T02:26:59.958Z,14.00
2018-02-06T02:29:27.456Z,12.40
2018-02-06T02:31:54.965Z,13.43
2018-02-06T02:34:22.461Z,12.47
2018-02-06T02:36:49.983Z,12.67
2018-02-06T02:39:17.475Z,12.23
2018-02-06T04:39:52.616Z,16.43
2018-02-06T04:42:20.113Z,14.73
2018-02-06T04:44:48.376Z,15.90
2018-02-06T04:47:15.876Z,14.70
2018-02-06T04:49:43.374Z,16.47
2018-02-06T04:52:10.897Z,15.70
2018-02-06T04:54:38.380Z,16.03
2018-02-06T04:57:05.888Z,15.47
2018-02-06T04:59:34.133Z,14.70
2018-02-06T05:02:01.640Z,16.57
2018-02-06T05:04:29.119Z,15.80
2018-02-06T05:06:56.605Z,16.17
2018-02-06T05:09:24.141Z,15.80
2018-02-06T05:11:51.622Z,15.30
2018-02-06T05:14:19.151Z,16.90
2018-02-06T05:16:46.629Z,16.27
2018-02-06T05:19:14.129Z,16.73
2018-02-06T05:21:41.620Z,14.40
2018-02-06T05:24:09.137Z,15.17
2018-02-06T05:26:37.396Z,15.20
2018-02-06T05:29:04.909Z,16.73
2018-02-06T05:31:32.382Z,15.70
2018-02-06T05:33:59.875Z,15.87
2018-02-06T05:36:28.125Z,16.27
2018-02-06T05:38:55.619Z,16.20
2018-02-06T05:41:23.850Z,13.97
2018-02-06T05:43:51.390Z,14.97
2018-02-06T05:46:18.869Z,16.37
2018-02-06T05:48:46.418Z,16.30
2018-02-06T05:51:13.896Z,14.77
2018-02-06T05:53:41.471Z,14.70
2018-02-06T05:56:09.025Z,15.73
2018-02-06T05:58:36.535Z,16.63
2018-02-06T06:01:04.013Z,16.13
2018-02-06T06:03:31.520Z,16.23
2018-02-06T06:05:59.060Z,16.43
2018-02-06T06:08:26.586Z,17.83
2018-02-06T06:10:54.079Z,16.90
2018-02-06T06:13:21.549Z,14.43
2018-02-06T06:15:49.839Z,16.33
2018-02-06T06:18:17.334Z,16.77
2018-02-06T06:20:44.845Z,16.37
2018-02-06T06:23:13.095Z,16.60
2018-02-06T06:25:40.596Z,16.70
2018-02-06T06:28:08.087Z,17.43
2018-02-06T06:30:35.685Z,15.90
2018-02-06T06:33:03.199Z,16.70
2018-02-06T06:35:30.721Z,16.37
2018-02-06T06:37:58.996Z,16.37
2018-02-06T06:40:27.278Z,16.80
2018-02-06T06:42:54.757Z,17.40
2018-02-06T06:45:22.259Z,16.70
2018-02-06T06:47:49.768Z,16.80
2018-02-06T06:50:17.288Z,17.60
2018-02-06T06:52:44.766Z,17.30
2018-02-06T06:55:12.353Z,17.30
2018-02-06T06:57:39.876Z,17.63
2018-02-06T07:00:07.303Z,18.57
2018-02-06T07:02:34.809Z,16.97
2018-02-06T07:05:02.276Z,18.43
2018-02-06T07:07:29.771Z,19.30
2018-02-06T07:09:57.247Z,16.53
2018-02-06T07:12:24.739Z,16.57
2018-02-06T07:14:52.216Z,17.33
2018-02-06T07:17:19.715Z,17.83
2018-02-06T07:19:47.197Z,18.13
2018-02-06T07:22:15.472Z,19.03
2018-02-06T07:24:43.699Z,16.73
2018-02-06T07:27:11.220Z,18.70
2018-02-06T07:29:38.755Z,19.73
2018-02-06T07:32:07.006Z,18.90
2018-02-06T07:34:34.489Z,19.13
2018-02-06T07:37:02.754Z,17.30
2018-02-06T07:39:30.240Z,18.13
2018-02-06T07:41:57.766Z,18.33
2018-02-06T07:44:25.259Z,19.30
2018-02-06T07:46:52.833Z,20.30
2018-02-06T07:49:20.304Z,17.27
2018-02-06T07:51:47.798Z,18.13
2018-02-06T07:54:16.131Z,17.97
2018-02-06T07:56:43.656Z,16.57
2018-02-06T07:59:11.896Z,17.67
2018-02-06T08:01:39.402Z,18.43
2018-02-06T08:04:06.935Z,18.23
2018-02-06T08:06:34.576Z,17.87
2018-02-06T08:09:02.057Z,20.20
2018-02-06T08:11:29.519Z,19.60
2018-02-06T08:13:57.023Z,18.93
2018-02-06T08:16:24.530Z,18.63
2018-02-06T08:18:52.024Z,20.10
2018-02-06T08:21:19.516Z,21.03
2018-02-06T08:23:47.036Z,20.00
2018-02-06T08:26:14.507Z,20.17
2018-02-06T08:28:42.059Z,20.70
2018-02-06T08:31:09.518Z,20.57
2018-02-06T08:33:37.030Z,21.20
2018-02-06T08:36:04.518Z,19.20
2018-02-06T08:38:33.182Z,20.43
2018-02-06T08:41:00.654Z,21.17
2018-02-06T08:43:28.960Z,19.37
2018-02-06T08:45:56.446Z,20.17
2018-02-06T08:48:24.018Z,21.40
2018-02-06T08:50:52.229Z,19.50
2018-02-06T08:53:19.752Z,19.50
2018-02-06T08:55:47.232Z,21.93
2018-02-06T08:58:15.532Z,22.87
2018-02-06T09:00:43.010Z,21.93
2018-02-06T09:03:10.484Z,21.93
2018-02-06T09:05:38.015Z,20.37
2018-02-06T09:08:05.505Z,20.03
2018-02-06T09:10:33.001Z,23.07
2018-02-06T09:13:01.256Z,21.17
2018-02-06T09:15:29.544Z,21.87
2018-02-06T09:17:57.027Z,20.73
2018-02-06T09:20:24.585Z,21.53
2018-02-06T09:22:52.082Z,21.87
2018-02-06T09:25:19.591Z,22.00
2018-02-06T09:27:47.828Z,21.23
2018-02-06T09:30:15.343Z,21.33
2018-02-06T09:32:42.833Z,21.67
2018-02-06T09:35:10.362Z,21.30
2018-02-06T09:37:37.822Z,21.87
2018-02-06T09:40:05.310Z,20.00
2018-02-06T09:42:32.791Z,20.60
2018-02-06T09:45:00.306Z,21.87
2018-02-06T09:47:27.793Z,23.00
2018-02-06T09:49:55.319Z,24.73
2018-02-06T09:52:22.810Z,25.00
2018-02-06T09:54:50.291Z,25.43
2018-02-06T09:57:18.605Z,21.00
2018-02-06T09:59:46.075Z,21.67
2018-02-06T10:02:13.585Z,20.20
2018-02-06T10:04:41.765Z,23.20
2018-02-06T10:07:09.287Z,20.27
2018-02-06T10:09:36.775Z,20.50
2018-02-06T10:12:05.113Z,23.10
2018-02-06T10:14:32.608Z,22.00
2018-02-06T10:17:00.110Z,23.07
2018-02-06T10:19:27.596Z,23.33
2018-02-06T10:21:55.077Z,21.37
2018-02-06T10:24:22.548Z,20.87
2018-02-06T10:26:50.822Z,23.17
2018-02-06T10:29:18.287Z,20.63
2018-02-06T10:31:45.831Z,21.90
2018-02-06T10:34:13.298Z,23.00
2018-02-06T10:36:40.799Z,21.73
2018-02-06T10:39:08.295Z,21.40
2018-02-06T10:41:35.835Z,20.17
2018-02-06T10:44:03.298Z,21.60
2018-02-06T10:46:31.705Z,20.80
2018-02-06T10:48:59.181Z,21.17
2018-02-06T10:51:27.402Z,19.27
2018-02-06T10:53:54.907Z,21.93
2018-02-06T10:56:23.139Z,20.97
2018-02-06T10:58:50.630Z,20.37
2018-02-06T11:01:18.876Z,20.83
2018-02-06T11:03:46.382Z,20.70
2018-02-06T11:06:13.842Z,19.37
2018-02-06T11:08:41.355Z,20.17
2018-02-06T11:11:08.846Z,20.60
2018-02-06T11:13:37.116Z,21.83
2018-02-06T11:16:05.423Z,21.97
2018-02-06T11:18:32.928Z,20.77
2018-02-06T11:21:00.392Z,21.70
2018-02-06T11:23:27.950Z,20.57
2018-02-06T11:25:55.423Z,21.67
2018-02-06T11:28:23.652Z,20.87
2018-02-06T11:30:51.151Z,21.77
2018-02-06T11:33:19.393Z,21.53
2018-02-06T11:35:46.893Z,19.37
2018-02-06T11:38:15.132Z,18.53
2018-02-06T11:40:42.643Z,19.30
2018-02-06T11:43:10.887Z,18.63
2018-02-06T11:45:38.379Z,20.43
2018-02-06T11:48:05.844Z,20.50
2018-02-06T11:50:33.378Z,17.33
2018-02-06T11:53:01.606Z,19.27
2018-02-06T11:55:29.181Z,20.20
2018-02-06T11:57:56.664Z,20.00
2018-02-06T12:00:24.949Z,19.40
2018-02-06T12:02:53.205Z,19.47
2018-02-06T12:05:20.728Z,18.03
2018-02-06T12:07:48.196Z,17.90
2018-02-06T12:10:15.795Z,18.60
2018-02-06T12:12:43.257Z,19.20
2018-02-06T12:15:11.530Z,19.80
2018-02-06T12:17:39.755Z,19.60
2018-02-06T12:20:07.275Z,18.67
2018-02-06T12:22:34.764Z,17.47
2018-02-06T12:25:02.260Z,19.20
2018-02-06T12:27:29.754Z,19.47
2018-02-06T12:29:58.017Z,17.27
2018-02-06T12:32:26.268Z,18.57
2018-02-06T12:34:53.793Z,18.87
2018-02-06T12:37:21.258Z,16.67
2018-02-06T12:39:48.767Z,18.30
2018-02-06T12:42:16.998Z,19.47
2018-02-06T12:44:44.631Z,18.77
2018-02-06T12:47:12.102Z,18.97
2018-02-06T12:49:39.571Z,19.40
2018-02-06T12:52:07.061Z,17.20
2018-02-06T12:54:34.541Z,17.23
2018-02-06T12:57:02.814Z,18.37
2018-02-06T12:59:30.305Z,19.17
2018-02-06T13:01:57.790Z,18.33
2018-02-06T13:04:25.265Z,18.57
2018-02-06T13:06:52.806Z,19.70
2018-02-06T13:09:20.292Z,18.73
2018-02-06T13:11:48.578Z,19.37
2018-02-06T13:14:16.807Z,19.60
2018-02-06T13:16:44.318Z,18.70
2018-02-06T13:19:11.844Z,18.13
2018-02-06T13:21:39.402Z,21.27
2018-02-06T13:24:06.829Z,18.40
2018-02-06T13:26:34.320Z,19.97
2018-02-06T13:29:01.918Z,19.50
2018-02-06T13:31:29.423Z,18.17
2018-02-06T13:33:57.049Z,19.90
2018-02-06T13:36:24.562Z,19.27
2018-02-06T13:38:52.063Z,19.53
2018-02-06T13:41:19.555Z,18.43
2018-02-06T13:43:47.026Z,18.57
2018-02-06T13:46:14.516Z,16.93
2018-02-06T13:48:42.786Z,18.70
2018-02-06T13:51:10.301Z,19.73
2018-02-06T13:53:37.846Z,18.53
2018-02-06T13:56:05.313Z,16.90
2018-02-06T13:58:32.817Z,20.30
2018-02-06T14:01:01.065Z,17.53
2018-02-06T14:03:28.602Z,18.53
2018-02-06T14:05:56.082Z,17.93
2018-02-06T14:08:23.582Z,18.37
2018-02-06T14:10:51.084Z,17.67
2018-02-06T14:13:18.555Z,17.83
2018-02-06T14:15:46.057Z,18.87
2018-02-06T14:18:13.549Z,19.00
2018-02-06T14:20:41.051Z,16.90
2018-02-06T14:23:09.289Z,17.27
2018-02-06T14:25:36.787Z,18.30
2018-02-06T14:28:05.057Z,19.57
2018-02-06T14:30:32.601Z,15.93
2018-02-06T14:33:00.080Z,17.60
2018-02-06T14:35:28.350Z,19.70
2018-02-06T14:37:55.821Z,18.63
2018-02-06T14:40:24.082Z,17.87
2018-02-06T14:42:52.354Z,19.20
2018-02-06T14:45:19.903Z,17.83
2018-02-06T14:47:47.384Z,18.47
2018-02-06T14:50:15.668Z,18.47
2018-02-06T14:52:43.972Z,18.23
2018-02-06T14:55:11.497Z,19.07
2018-02-06T14:57:38.972Z,18.00
2018-02-06T15:00:07.408Z,18.57
2018-02-06T15:02:34.879Z,18.33
2018-02-06T15:05:02.422Z,17.73
2018-02-06T15:07:29.946Z,19.60
2018-02-06T15:09:57.438Z,20.13
2018-02-06T15:12:24.934Z,19.37
2018-02-06T15:14:53.167Z,18.70
2018-02-06T15:17:20.672Z,18.57
2018-02-06T15:19:48.929Z,18.93
2018-02-06T15:22:16.435Z,18.77
2018-02-06T15:24:43.940Z,17.20
2018-02-06T15:27:11.456Z,18.97
2018-02-06T15:29:38.941Z,20.17
2018-02-06T15:32:06.453Z,20.23
2018-02-06T15:34:33.933Z,18.07
2018-02-06T15:37:01.494Z,17.07
2018-02-06T15:39:29.030Z,17.87
2018-02-06T15:41:56.575Z,17.67
2018-02-06T15:44:24.051Z,20.33
2018-02-06T15:46:51.571Z,17.60
2018-02-06T15:49:19.042Z,20.73
2018-02-06T15:51:47.331Z,20.13
2018-02-06T15:54:14.822Z,19.83
2018-02-06T15:56:42.348Z,21.07
2018-02-06T15:59:09.887Z,18.23
2018-02-06T16:01:38.177Z,18.67
2018-02-06T16:04:05.664Z,17.57
2018-02-06T16:06:33.223Z,18.53
2018-02-06T16:09:00.691Z,19.00
2018-02-06T16:11:28.190Z,20.67
2018-02-06T16:13:55.696Z,18.40
2018-02-06T16:16:23.951Z,20.03
2018-02-06T16:18:51.468Z,18.53
2018-02-06T16:21:18.945Z,18.73
2018-02-06T16:23:47.238Z,21.20
2018-02-06T16:26:15.484Z,18.40
2018-02-06T16:28:43.064Z,18.93
2018-02-06T16:31:11.317Z,21.33
2018-02-06T16:33:39.630Z,20.27
2018-02-06T16:36:07.140Z,18.20
2018-02-06T16:38:34.659Z,20.03
2018-02-06T16:41:02.142Z,19.07
2018-02-06T16:43:29.779Z,18.40
2018-02-06T16:45:57.273Z,19.10
2018-02-06T16:48:24.778Z,20.80
2018-02-06T16:50:52.271Z,19.97
2018-02-06T16:53:19.771Z,22.57
2018-02-06T16:55:47.261Z,22.10
2018-02-06T16:58:14.789Z,21.33
2018-02-06T17:00:43.067Z,19.23
2018-02-06T17:03:11.357Z,20.73
2018-02-06T17:05:39.587Z,19.60
2018-02-06T17:08:07.397Z,21.70
2018-02-06T17:10:35.632Z,19.10
2018-02-06T17:13:03.154Z,21.03
2018-02-06T17:15:30.688Z,19.97
2018-02-06T17:17:58.936Z,20.67
2018-02-06T17:20:26.459Z,19.73
2018-02-06T17:22:53.946Z,20.37
2018-02-06T17:25:21.465Z,19.87
2018-02-06T17:27:48.956Z,18.67
2018-02-06T17:30:16.564Z,20.03
2018-02-06T17:32:44.821Z,21.87
2018-02-06T17:35:13.102Z,20.70
2018-02-06T17:37:40.582Z,21.03
2018-02-06T17:40:08.082Z,20.93
2018-02-06T17:42:35.564Z,23.63
2018-02-06T17:45:04.785Z,19.23
2018-02-06T17:47:32.546Z,20.30
2018-02-06T17:50:00.815Z,21.07
2018-02-06T17:52:31.908Z,18.83
2018-02-06T17:54:59.440Z,18.97
2018-02-06T17:57:26.925Z,18.87
2018-02-06T17:59:55.321Z,21.37
2018-02-06T18:02:22.872Z,19.50
2018-02-06T18:04:50.314Z,21.90
2018-02-06T18:07:17.802Z,20.33
2018-02-06T18:09:45.280Z,19.13
2018-02-06T18:12:13.548Z,18.57
2018-02-06T18:14:41.035Z,21.33
2018-02-06T18:17:08.576Z,20.80
2018-02-06T18:19:36.834Z,23.83
2018-02-06T18:22:04.342Z,22.80
2018-02-06T18:24:32.629Z,21.33
2018-02-06T18:27:00.159Z,23.20
2018-02-06T18:29:27.669Z,22.60
2018-02-06T18:31:55.196Z,19.93
2018-02-06T18:34:22.726Z,22.77
2018-02-06T18:36:50.978Z,18.13
2018-02-06T18:39:18.490Z,21.03
2018-02-06T18:41:45.985Z,21.27
2018-02-06T18:44:13.453Z,21.47
2018-02-06T18:46:41.014Z,21.13
2018-02-06T18:49:08.479Z,20.37
2018-02-06T18:51:36.878Z,20.80
2018-02-06T18:54:05.110Z,25.53
2018-02-06T18:56:32.599Z,24.20
2018-02-06T18:59:00.870Z,27.87
2018-02-06T19:01:28.331Z,29.93
2018-02-06T19:03:56.621Z,27.23
2018-02-06T19:06:24.100Z,22.87
2018-02-06T19:08:51.609Z,29.00
2018-02-06T19:11:19.334Z,23.00
2018-02-06T19:13:46.843Z,21.37
2018-02-06T19:16:14.324Z,25.17
2018-02-06T19:18:42.650Z,26.60
2018-02-06T19:21:10.157Z,22.43
2018-02-06T19:23:38.443Z,22.53
2018-02-06T19:26:06.922Z,24.17
2018-02-06T19:28:34.497Z,23.57
2018-02-06T19:31:02.811Z,22.77
2018-02-06T19:33:31.102Z,22.90
2018-02-06T19:35:59.394Z,21.67
2018-02-06T19:38:27.711Z,23.57
2018-02-06T19:40:55.175Z,22.33
2018-02-06T19:43:22.725Z,23.40
2018-02-06T19:45:50.735Z,22.20
2018-02-06T19:48:18.255Z,21.10
2018-02-06T19:50:45.727Z,18.43
2018-02-06T19:53:13.783Z,22.97
2018-02-06T19:55:42.107Z,25.30
2018-02-06T19:58:09.600Z,25.10
2018-02-06T20:00:37.112Z,22.33
2018-02-06T20:03:04.741Z,20.23
2018-02-06T20:05:32.312Z,20.90
2018-02-06T20:07:59.800Z,21.03
2018-02-06T20:10:27.325Z,19.73
2018-02-06T20:12:54.811Z,21.20
2018-02-06T20:15:22.317Z,19.50
2018-02-06T20:17:49.876Z,21.23
2018-02-06T20:20:17.375Z,21.07
2018-02-06T20:22:44.886Z,21.13
2018-02-06T20:25:12.423Z,17.23
2018-02-06T20:27:41.658Z,20.87
2018-02-06T20:30:09.173Z,20.03
2018-02-06T20:32:37.423Z,23.07
2018-02-06T20:35:04.923Z,23.63
2018-02-06T20:37:32.408Z,19.97
2018-02-06T20:40:00.067Z,21.23
2018-02-06T20:42:27.554Z,20.40
2018-02-06T20:44:55.613Z,19.77
2018-02-06T20:47:23.577Z,22.80
2018-02-06T20:49:51.996Z,22.03
2018-02-06T20:52:19.486Z,23.83
2018-02-06T20:54:46.972Z,22.00
2018-02-06T20:57:14.505Z,23.67
2018-02-06T20:59:42.029Z,23.17
2018-02-06T21:02:09.506Z,20.60
2018-02-06T21:04:37.805Z,22.77
2018-02-06T21:07:05.304Z,20.43
2018-02-06T21:09:32.925Z,21.93
2018-02-06T21:12:00.407Z,19.53
2018-02-06T21:14:27.912Z,23.60
2018-02-06T21:16:56.159Z,22.97
2018-02-06T21:19:23.697Z,24.30
2018-02-06T21:21:51.186Z,20.60
2018-02-06T21:24:18.664Z,22.47
2018-02-06T21:26:46.930Z,20.63
2018-02-06T21:29:15.191Z,20.33
2018-02-06T21:31:42.686Z,21.13
2018-02-06T21:34:10.165Z,21.20
2018-02-06T21:36:37.687Z,21.70
2018-02-06T21:39:05.914Z,25.03
2018-02-06T21:41:33.453Z,25.17
2018-02-06T21:44:00.965Z,22.83
2018-02-06T21:46:28.470Z,21.70
2018-02-06T21:48:55.935Z,21.87
2018-02-06T21:51:23.466Z,24.90
2018-02-06T21:53:51.709Z,23.43
2018-02-06T21:56:19.230Z,21.00
2018-02-06T21:58:46.705Z,22.20
2018-02-06T22:01:14.192Z,23.13
2018-02-06T22:03:41.701Z,22.20
2018-02-06T22:06:09.175Z,22.27
2018-02-06T22:08:36.684Z,21.03
2018-02-06T22:11:04.959Z,23.00
2018-02-06T22:13:33.212Z,22.13
2018-02-06T22:16:00.730Z,22.53
2018-02-06T22:18:28.213Z,22.47
2018-02-06T22:20:55.839Z,19.20
2018-02-06T22:23:23.333Z,20.67
2018-02-06T22:25:50.798Z,22.87
2018-02-06T22:28:18.299Z,19.97
2018-02-06T22:30:45.837Z,24.17
2018-02-06T22:33:14.087Z,21.80
2018-02-06T22:35:41.611Z,23.77
2018-02-06T22:38:09.101Z,22.37
2018-02-06T22:40:36.611Z,22.63
2018-02-06T22:43:04.081Z,22.50
2018-02-06T22:45:31.597Z,20.77
2018-02-06T22:47:59.847Z,24.47
2018-02-06T22:50:27.376Z,22.20
2018-02-06T22:52:54.869Z,24.43
2018-02-06T22:55:22.345Z,21.60
2018-02-06T22:57:50.628Z,22.50
2018-02-06T23:00:24.612Z,19.80
2018-02-06T23:02:52.113Z,18.97
2018-02-06T23:05:19.583Z,22.30
2018-02-06T23:07:47.087Z,19.17
2018-02-06T23:10:14.584Z,21.57
2018-02-06T23:12:42.841Z,21.50
2018-02-06T23:15:11.107Z,23.67
2018-02-06T23:17:38.585Z,27.37
2018-02-06T23:20:06.821Z,22.20
2018-02-06T23:22:34.318Z,23.83
2018-02-06T23:25:02.558Z,22.10
2018-02-06T23:27:30.127Z,25.30
2018-02-06T23:29:57.611Z,23.00
2018-02-06T23:32:25.892Z,21.60
2018-02-06T23:34:54.140Z,21.63
2018-02-06T23:37:21.662Z,22.67
2018-02-06T23:39:49.177Z,22.43
2018-02-06T23:42:17.512Z,22.10
2018-02-06T23:44:44.972Z,22.33
2018-02-06T23:47:12.452Z,23.70
2018-02-06T23:49:39.958Z,24.40
2018-02-06T23:52:07.440Z,27.17
2018-02-06T23:54:35.708Z,22.20
2018-02-06T23:57:03.188Z,21.83
2018-02-06T23:59:30.713Z,26.10
